Byers, Colorado
Current Conditions -  °F | °C
As of 11:50 AM on Thursday 20 Nov 2014 (Local Time) from KFTG Reporting Station
Scattered Clouds Scattered Clouds  
Wind Chill: 42°   Ceiling: Unl
Heat Index: 46°   Visibility: 50mi
Dew Point: 23°   Wind: 8mph
Humidity: 40%   Direction: 60°ENE
Pressure: 29.98"   Gusts: NA
Location:  39.71°N, 104.23°W
Report Text: KFTG 201850Z 06007KT 50SM SCT100 SCT200 08/M05 A2998
Loading
Personal Weather Stations






























Interactive Weather Map New forecast layout! Learn more

10-Day Weather Forecast

Advertisements
Track Severe Weather on mobile